Time;durP1;ratioP1;P1;durP2;ratioP2;P2;SDS_P1;SDS_P2;PMS_P1;PMS_P2;Temp;Humidity;BMP_temperature;BMP_pressure;BME280_temperature;BME280_humidity;BME280_pressure;Samples;Min_cycle;Max_cycle;Signal;HPM_P1;HPM_P2
2020/02/01 00:01:38;;;;;;;2.2;0.6;;;;;;;10.98;82.54102;957.272;;;;
2020/02/01 00:04:03;;;;;;;1;0.6;;;;;;;10.91;82.58691;957.2537;;;;
2020/02/01 00:06:28;;;;;;;0.5;0.5;;;;;;;11.05;82.16309;957.3219;;;;
2020/02/01 00:08:53;;;;;;;0.6;0.5;;;;;;;11.05;82.05957;957.3105;;;;
2020/02/01 00:11:19;;;;;;;1.2;0.6;;;;;;;10.99;82.16113;957.3381;;;;
2020/02/01 00:13:44;;;;;;;0.8;0.6;;;;;;;11;82.05078;957.3578;;;;
2020/02/01 00:16:09;;;;;;;1.4;0.9;;;;;;;10.95;82.34082;957.2798;;;;
2020/02/01 00:18:34;;;;;;;1.6;0.8;;;;;;;10.98;82.49512;957.2419;;;;
2020/02/01 00:20:59;;;;;;;0.9;0.8;;;;;;;10.91;82.81738;957.2783;;;;
2020/02/01 00:23:24;;;;;;;1.6;0.7;;;;;;;10.81;83.18652;957.1808;;;;
2020/02/01 00:25:49;;;;;;;1.4;0.7;;;;;;;10.79;83.3457;957.1959;;;;
2020/02/01 00:28:14;;;;;;;1.2;0.7;;;;;;;10.74;83.75;957.2313;;;;
2020/02/01 00:30:40;;;;;;;1.2;0.6;;;;;;;10.73;83.8291;957.1877;;;;
2020/02/01 00:33:20;;;;;;;1.3;0.7;;;;;;;10.71;84.06934;957.1616;;;;
2020/02/01 00:35:52;;;;;;;0.9;0.7;;;;;;;10.74;83.78516;957.1481;;;;
2020/02/01 00:38:00;;;;;;;1;0.5;;;;;;;10.71;84.15918;957.2357;;;;
2020/02/01 00:40:20;;;;;;;0.4;0.4;;;;;;;10.68;84.55566;957.21;;;;
2020/02/01 00:42:45;;;;;;;0.5;0.5;;;;;;;10.65;84.76855;957.2793;;;;
2020/02/01 00:45:10;;;;;;;0.8;0.5;;;;;;;10.88;84.05469;957.2558;;;;
2020/02/01 00:47:35;;;;;;;1;0.6;;;;;;;10.84;83.94336;957.231;;;;
2020/02/01 00:50:00;;;;;;;1.4;0.7;;;;;;;10.79;84.14063;957.2904;;;;
2020/02/01 00:52:25;;;;;;;0.7;0.6;;;;;;;10.69;84.66211;957.2523;;;;
2020/02/01 00:54:51;;;;;;;0.9;0.7;;;;;;;10.7;84.72168;957.2255;;;;
2020/02/01 00:57:16;;;;;;;1.9;0.7;;;;;;;10.71;84.8252;957.2011;;;;
2020/02/01 00:59:41;;;;;;;2.8;0.7;;;;;;;10.72;85.30078;957.1998;;;;
2020/02/01 01:02:06;;;;;;;1.5;0.8;;;;;;;10.78;85.09473;957.1258;;;;
2020/02/01 01:04:32;;;;;;;1;0.8;;;;;;;10.85;84.93457;957.0508;;;;
2020/02/01 01:06:57;;;;;;;1.3;0.9;;;;;;;10.73;85.52148;956.9619;;;;
2020/02/01 01:09:22;;;;;;;1.6;1;;;;;;;10.88;85.04297;956.8678;;;;
2020/02/01 01:11:47;;;;;;;1.2;0.9;;;;;;;10.56;86.44336;956.8978;;;;
2020/02/01 01:14:12;;;;;;;1.6;1;;;;;;;10.49;87.08496;956.8444;;;;
2020/02/01 01:16:37;;;;;;;2.4;0.9;;;;;;;10.45;87.53613;956.8992;;;;
2020/02/01 01:19:02;;;;;;;1.3;0.9;;;;;;;;;;;;;
2020/02/01 01:21:27;;;;;;;1.5;1;;;;;;;;;;;;;
2020/02/01 01:23:53;;;;;;;1.3;1;;;;;;;;;;;;;
2020/02/01 01:26:18;;;;;;;1.2;1;;;;;;;;;;;;;
2020/02/01 01:28:46;;;;;;;1.7;1.1;;;;;;;;;;;;;
2020/02/01 01:31:28;;;;;;;1.6;0.9;;;;;;;;;;;;;
2020/02/01 01:33:47;;;;;;;2.7;0.9;;;;;;;;;;;;;
2020/02/01 01:35:58;;;;;;;1.7;1.1;;;;;;;;;;;;;
2020/02/01 01:38:23;;;;;;;1.7;1;;;;;;;;;;;;;
2020/02/01 01:40:48;;;;;;;1.6;1.1;;;;;;;;;;;;;
2020/02/01 01:43:13;;;;;;;2.3;0.9;;;;;;;;;;;;;
2020/02/01 01:45:39;;;;;;;1.5;1.1;;;;;;;;;;;;;
2020/02/01 01:48:04;;;;;;;2.7;1.2;;;;;;;;;;;;;
2020/02/01 01:50:29;;;;;;;2.2;1.1;;;;;;;;;;;;;
2020/02/01 01:52:54;;;;;;;1.1;1;;;;;;;;;;;;;
2020/02/01 01:55:19;;;;;;;1.6;1.1;;;;;;;;;;;;;
2020/02/01 01:57:44;;;;;;;2.4;1.2;;;;;;;;;;;;;
2020/02/01 02:00:09;;;;;;;1.2;1.1;;;;;;;;;;;;;
2020/02/01 02:02:38;;;;;;;2.5;1.1;;;;;;;;;;;;;
2020/02/01 02:04:59;;;;;;;1.8;1.3;;;;;;;;;;;;;
2020/02/01 02:07:24;;;;;;;2;1.3;;;;;;;;;;;;;
2020/02/01 02:09:49;;;;;;;1.3;1.1;;;;;;;;;;;;;
2020/02/01 02:12:14;;;;;;;1.8;1.2;;;;;;;;;;;;;
2020/02/01 02:14:39;;;;;;;1.9;1.4;;;;;;;;;;;;;
2020/02/01 02:17:04;;;;;;;2;1.4;;;;;;;;;;;;;
2020/02/01 02:19:30;;;;;;;1.7;1.4;;;;;;;;;;;;;
2020/02/01 02:21:55;;;;;;;1.7;1.5;;;;;;;;;;;;;
2020/02/01 02:24:20;;;;;;;1.9;1.5;;;;;;;;;;;;;
2020/02/01 02:26:45;;;;;;;2.4;1.5;;;;;;;;;;;;;
2020/02/01 02:29:10;;;;;;;1.7;1.4;;;;;;;;;;;;;
2020/02/01 02:31:35;;;;;;;1.7;1.5;;;;;;;;;;;;;
2020/02/01 02:34:03;;;;;;;2.5;1.7;;;;;;;;;;;;;
2020/02/01 02:36:25;;;;;;;2.1;1.5;;;;;;;;;;;;;
2020/02/01 02:38:51;;;;;;;2.3;1.7;;;;;;;;;;;;;
2020/02/01 02:41:16;;;;;;;1.8;1.6;;;;;;;;;;;;;
2020/02/01 02:43:41;;;;;;;1.7;1.6;;;;;;;;;;;;;
2020/02/01 02:46:25;;;;;;;2.4;1.5;;;;;;;;;;;;;
2020/02/01 02:48:31;;;;;;;2.4;1.7;;;;;;;;;;;;;
2020/02/01 02:50:56;;;;;;;1.7;1.5;;;;;;;;;;;;;
2020/02/01 02:53:21;;;;;;;2.6;1.6;;;;;;;;;;;;;
2020/02/01 02:55:46;;;;;;;1.7;1.4;;;;;;;;;;;;;
2020/02/01 02:58:11;;;;;;;2.6;1.5;;;;;;;;;;;;;
2020/02/01 03:00:36;;;;;;;2.2;1.4;;;;;;;;;;;;;
2020/02/01 03:03:02;;;;;;;2.5;1.7;;;;;;;;;;;;;
2020/02/01 03:05:27;;;;;;;1.9;1.3;;;;;;;;;;;;;
2020/02/01 03:07:52;;;;;;;2.3;1.3;;;;;;;;;;;;;
2020/02/01 03:10:17;;;;;;;1.8;1.4;;;;;;;;;;;;;
2020/02/01 03:12:42;;;;;;;2.2;1.4;;;;;;;;;;;;;
2020/02/01 03:15:07;;;;;;;1.5;1.2;;;;;;;;;;;;;
2020/02/01 03:17:32;;;;;;;2.3;1.2;;;;;;;;;;;;;
2020/02/01 03:19:57;;;;;;;1.6;1.4;;;;;;;;;;;;;
2020/02/01 03:22:22;;;;;;;1.8;1.3;;;;;;;;;;;;;
2020/02/01 03:24:48;;;;;;;1.1;1;;;;;;;;;;;;;
2020/02/01 03:27:13;;;;;;;1.6;1.1;;;;;;;;;;;;;
2020/02/01 03:29:38;;;;;;;1.1;1;;;;;;;;;;;;;
2020/02/01 03:32:03;;;;;;;1.6;1;;;;;;;;;;;;;
2020/02/01 03:34:28;;;;;;;2;1;;;;;;;;;;;;;
2020/02/01 03:36:53;;;;;;;1.5;1;;;;;;;;;;;;;
2020/02/01 03:39:18;;;;;;;1.7;1;;;;;;;;;;;;;
2020/02/01 03:41:43;;;;;;;1.2;1;;;;;;;;;;;;;
2020/02/01 03:44:08;;;;;;;1.5;0.9;;;;;;;;;;;;;
2020/02/01 03:46:34;;;;;;;1.3;1;;;;;;;;;;;;;
2020/02/01 03:48:59;;;;;;;1.6;0.9;;;;;;;;;;;;;
2020/02/01 03:51:25;;;;;;;2.9;0.9;;;;;;;;;;;;;
2020/02/01 03:53:53;;;;;;;1.4;0.8;;;;;;;;;;;;;
2020/02/01 03:56:18;;;;;;;1.2;0.9;;;;;;;;;;;;;
2020/02/01 03:58:45;;;;;;;0.9;0.7;;;;;;;;;;;;;
2020/02/01 07:03:47;;;;;;;1.1;0.7;;;;;;;9.39;87.45996;953.9662;;;;
2020/02/01 07:06:35;;;;;;;0.9;0.8;;;;;;;9.4;87.08496;953.9317;;;;
2020/02/01 07:09:00;;;;;;;3;1;;;;;;;9.31;87.52539;954.0003;;;;
2020/02/01 07:11:25;;;;;;;1.7;0.9;;;;;;;9.23;87.96777;954.0274;;;;
2020/02/01 07:13:50;;;;;;;2;1;;;;;;;9.25;88.00586;954.0156;;;;
2020/02/01 07:16:15;;;;;;;2.3;1;;;;;;;9.19;88.0625;954.0522;;;;
2020/02/01 07:18:40;;;;;;;1.5;0.9;;;;;;;9.29;87.53125;954.1007;;;;
2020/02/01 07:21:05;;;;;;;1.9;1.1;;;;;;;9.33;87.27441;954.0516;;;;
2020/02/01 07:23:30;;;;;;;2;1.1;;;;;;;9.25;87.46875;954.1124;;;;
2020/02/01 07:25:55;;;;;;;1.8;0.9;;;;;;;;;;;;;
2020/02/01 07:28:20;;;;;;;2.3;1;;;;;;;;;;;;;
2020/02/01 07:30:46;;;;;;;2.4;1.1;;;;;;;;;;;;;
2020/02/01 07:33:11;;;;;;;2.8;1.1;;;;;;;;;;;;;
2020/02/01 07:35:36;;;;;;;3.3;0.9;;;;;;;;;;;;;
2020/02/01 07:38:02;;;;;;;3.8;1.1;;;;;;;;;;;;;
2020/02/01 07:40:27;;;;;;;5.2;1.3;;;;;;;;;;;;;
2020/02/01 07:42:52;;;;;;;3;1;;;;;;;;;;;;;
2020/02/01 07:45:17;;;;;;;3.8;1.1;;;;;;;;;;;;;
2020/02/01 07:47:42;;;;;;;2.4;1;;;;;;;;;;;;;
2020/02/01 07:50:07;;;;;;;1.8;1;;;;;;;;;;;;;
2020/02/01 07:52:32;;;;;;;2.4;0.9;;;;;;;;;;;;;
2020/02/01 07:54:57;;;;;;;3.5;1.1;;;;;;;;;;;;;
2020/02/01 07:57:22;;;;;;;2.1;0.9;;;;;;;;;;;;;
2020/02/01 07:59:47;;;;;;;1;0.9;;;;;;;;;;;;;
2020/02/01 08:02:12;;;;;;;1.2;1;;;;;;;;;;;;;
2020/02/01 08:04:37;;;;;;;2.4;1;;;;;;;;;;;;;
2020/02/01 08:07:03;;;;;;;1;0.9;;;;;;;;;;;;;
2020/02/01 08:09:28;;;;;;;1.3;0.9;;;;;;;;;;;;;
2020/02/01 08:11:53;;;;;;;1.5;0.9;;;;;;;;;;;;;
2020/02/01 08:14:30;;;;;;;1.3;0.9;;;;;;;;;;;;;
2020/02/01 08:17:06;;;;;;;1.3;1;;;;;;;;;;;;;
2020/02/01 08:19:32;;;;;;;1.3;0.8;;;;;;;;;;;;;
2020/02/01 08:21:57;;;;;;;1.3;0.8;;;;;;;;;;;;;
2020/02/01 08:30:49;;;;;;;1.9;0.9;;;;;;;;;;;;;
2020/02/01 08:33:46;;;;;;;2.8;0.9;;;;;;;;;;;;;
2020/02/01 08:39:34;;;;;;;2;0.8;;;;;;;;;;;;;
2020/02/01 08:44:33;;;;;;;2.4;0.9;;;;;;;;;;;;;
2020/02/01 08:47:00;;;;;;;3.4;1.1;;;;;;;;;;;;;
2020/02/01 08:54:15;;;;;;;3.6;1.1;;;;;;;;;;;;;
2020/02/01 08:56:26;;;;;;;2;1;;;;;;;;;;;;;
2020/02/01 08:58:53;;;;;;;2.2;1.4;;;;;;;;;;;;;
2020/02/01 09:01:16;;;;;;;1.5;1.4;;;;;;;;;;;;;
2020/02/01 09:06:07;;;;;;;1.8;1.1;;;;;;;;;;;;;
2020/02/01 09:08:39;;;;;;;1.6;1.2;;;;;;;;;;;;;
2020/02/01 09:11:11;;;;;;;1.4;1.1;;;;;;;;;;;;;
2020/02/01 09:13:21;;;;;;;1.1;1;;;;;;;;;;;;;
2020/02/01 09:15:52;;;;;;;1.2;1.1;;;;;;;;;;;;;
2020/02/01 09:20:34;;;;;;;2.5;1.3;;;;;;;;;;;;;
2020/02/01 09:23:10;;;;;;;1.5;1.3;;;;;;;;;;;;;
2020/02/01 09:25:43;;;;;;;1.6;1.2;;;;;;;;;;;;;
2020/02/01 09:27:52;;;;;;;2.7;1.2;;;;;;;;;;;;;
2020/02/01 09:30:31;;;;;;;2;1.3;;;;;;;;;;;;;
2020/02/01 09:33:32;;;;;;;1.9;0.9;;;;;;;;;;;;;
2020/02/01 09:35:16;;;;;;;1.2;1.1;;;;;;;;;;;;;
2020/02/01 09:37:26;;;;;;;1.7;1.2;;;;;;;;;;;;;
2020/02/01 09:42:28;;;;;;;1.6;1.1;;;;;;;;;;;;;
2020/02/01 09:47:19;;;;;;;1.1;0.9;;;;;;;;;;;;;
2020/02/01 09:49:41;;;;;;;1.7;1;;;;;;;;;;;;;
2020/02/01 09:52:41;;;;;;;2.3;1;;;;;;;;;;;;;
2020/02/01 09:56:52;;;;;;;1.5;1;;;;;;;;;;;;;
2020/02/01 09:59:18;;;;;;;2.1;1;;;;;;;;;;;;;
2020/02/01 10:01:44;;;;;;;1.9;1.1;;;;;;;;;;;;;
2020/02/01 10:06:31;;;;;;;2.6;1.3;;;;;;;;;;;;;
2020/02/01 10:13:46;;;;;;;2;1.1;;;;;;;;;;;;;
2020/02/01 10:21:12;;;;;;;2.6;1;;;;;;;;;;;;;
2020/02/01 10:23:39;;;;;;;2.8;1.6;;;;;;;;;;;;;
2020/02/01 10:25:58;;;;;;;1.9;1.2;;;;;;;;;;;;;
2020/02/01 10:28:37;;;;;;;2.3;0.9;;;;;;;;;;;;;
2020/02/01 10:30:44;;;;;;;1.8;0.9;;;;;;;;;;;;;
2020/02/01 10:33:11;;;;;;;1.8;0.9;;;;;;;;;;;;;
2020/02/01 10:35:37;;;;;;;1.7;1;;;;;;;;;;;;;
2020/02/01 10:40:30;;;;;;;2.5;1.1;;;;;;;;;;;;;
2020/02/01 10:45:55;;;;;;;1.7;1;;;;;;;;;;;;;
2020/02/01 10:47:43;;;;;;;2.2;1.2;;;;;;;;;;;;;
2020/02/01 10:50:05;;;;;;;1.6;1.1;;;;;;;;;;;;;
2020/02/01 10:55:11;;;;;;;2.2;1.1;;;;;;;;;;;;;
2020/02/01 10:57:24;;;;;;;1.6;1.1;;;;;;;;;;;;;
2020/02/01 11:02:46;;;;;;;2.1;1.5;;;;;;;;;;;;;
2020/02/01 11:04:35;;;;;;;1.2;1.1;;;;;;;;;;;;;
2020/02/01 11:07:31;;;;;;;1;0.9;;;;;;;;;;;;;
2020/02/01 11:09:38;;;;;;;2.4;1;;;;;;;;;;;;;
2020/02/01 11:12:27;;;;;;;1.1;0.9;;;;;;;;;;;;;
2020/02/01 11:15:37;;;;;;;1.5;1.1;;;;;;;;;;;;;
2020/02/01 11:16:38;;;;;;;2.1;1.1;;;;;;;;;;;;;
2020/02/01 11:19:17;;;;;;;1.3;1;;;;;;;;;;;;;
2020/02/01 11:36:05;;;;;;;2.1;0.8;;;;;;;;;;;;;
2020/02/01 11:40:50;;;;;;;1.5;0.9;;;;;;;;;;;;;
2020/02/01 11:43:55;;;;;;;1.6;1.2;;;;;;;;;;;;;
2020/02/01 11:45:38;;;;;;;1.5;1;;;;;;;;;;;;;
2020/02/01 11:48:20;;;;;;;0.9;0.8;;;;;;;;;;;;;
2020/02/01 11:55:23;;;;;;;1.4;1;;;;;;;;;;;;;
2020/02/01 11:57:46;;;;;;;1.9;0.9;;;;;;;;;;;;;
2020/02/01 12:02:44;;;;;;;1.5;0.8;;;;;;;;;;;;;
2020/02/01 12:05:02;;;;;;;1.5;1;;;;;;;;;;;;;
2020/02/01 12:08:04;;;;;;;1.5;0.9;;;;;;;;;;;;;
2020/02/01 12:09:52;;;;;;;2.2;1.3;;;;;;;;;;;;;
2020/02/01 12:12:21;;;;;;;1.4;1.2;;;;;;;;;;;;;
2020/02/01 12:17:14;;;;;;;1.7;0.9;;;;;;;;;;;;;
2020/02/01 12:19:47;;;;;;;1.5;1.1;;;;;;;;;;;;;
2020/02/01 12:24:15;;;;;;;1.1;0.8;;;;;;;;;;;;;
2020/02/01 12:26:39;;;;;;;2.3;1.2;;;;;;;;;;;;;
2020/02/01 12:29:04;;;;;;;1.5;1.2;;;;;;;;;;;;;
2020/02/01 12:31:30;;;;;;;1;0.8;;;;;;;;;;;;;
2020/02/01 12:36:20;;;;;;;1.4;0.8;;;;;;;;;;;;;
2020/02/01 12:38:45;;;;;;;2;0.8;;;;;;;;;;;;;
2020/02/01 12:41:19;;;;;;;2.1;0.7;;;;;;;;;;;;;
2020/02/01 12:43:44;;;;;;;0.8;0.8;;;;;;;;;;;;;
2020/02/01 12:46:09;;;;;;;0.6;0.6;;;;;;;;;;;;;
2020/02/01 12:48:34;;;;;;;1.6;0.9;;;;;;;;;;;;;
2020/02/01 12:51:00;;;;;;;0.9;0.9;;;;;;;;;;;;;
2020/02/01 12:53:25;;;;;;;1.2;0.9;;;;;;;;;;;;;
2020/02/01 12:55:50;;;;;;;2.3;1;;;;;;;;;;;;;
2020/02/01 12:58:15;;;;;;;1.2;0.9;;;;;;;;;;;;;
2020/02/01 13:00:40;;;;;;;2;1;;;;;;;;;;;;;
2020/02/01 13:03:05;;;;;;;1.2;0.7;;;;;;;;;;;;;
2020/02/01 13:05:30;;;;;;;1.5;1;;;;;;;;;;;;;
2020/02/01 13:07:56;;;;;;;1.3;0.9;;;;;;;;;;;;;
2020/02/01 13:10:20;;;;;;;1.7;1;;;;;;;;;;;;;
2020/02/01 13:12:45;;;;;;;2.3;1;;;;;;;;;;;;;
2020/02/01 13:15:11;;;;;;;1.6;1.1;;;;;;;;;;;;;
2020/02/01 13:17:36;;;;;;;2.1;1;;;;;;;;;;;;;
2020/02/01 13:20:01;;;;;;;2;1.1;;;;;;;;;;;;;
2020/02/01 13:22:26;;;;;;;1.6;0.9;;;;;;;;;;;;;
2020/02/01 13:24:51;;;;;;;1.3;0.9;;;;;;;;;;;;;
2020/02/01 13:27:16;;;;;;;2.4;1;;;;;;;;;;;;;
2020/02/01 13:29:41;;;;;;;1.5;1;;;;;;;;;;;;;
2020/02/01 13:32:06;;;;;;;1.5;0.9;;;;;;;;;;;;;
2020/02/01 13:34:31;;;;;;;1.1;0.8;;;;;;;;;;;;;
2020/02/01 13:36:57;;;;;;;1.6;0.9;;;;;;;;;;;;;
2020/02/01 13:39:25;;;;;;;0.8;0.7;;;;;;;;;;;;;
2020/02/01 13:41:47;;;;;;;3.2;1;;;;;;;;;;;;;
2020/02/01 13:44:12;;;;;;;1.6;0.8;;;;;;;;;;;;;
2020/02/01 13:46:37;;;;;;;1.1;1;;;;;;;;;;;;;
2020/02/01 13:49:02;;;;;;;1.9;0.9;;;;;;;;;;;;;
2020/02/01 13:51:27;;;;;;;1;0.9;;;;;;;;;;;;;
2020/02/01 13:53:53;;;;;;;1.4;0.8;;;;;;;;;;;;;
2020/02/01 13:56:18;;;;;;;1;0.8;;;;;;;;;;;;;
2020/02/01 13:58:43;;;;;;;1.1;0.8;;;;;;;;;;;;;
2020/02/01 14:01:08;;;;;;;0.8;0.7;;;;;;;;;;;;;
2020/02/01 14:03:33;;;;;;;1.2;0.8;;;;;;;;;;;;;
2020/02/01 14:05:58;;;;;;;1;0.7;;;;;;;;;;;;;
2020/02/01 14:08:23;;;;;;;0.6;0.6;;;;;;;;;;;;;
2020/02/01 14:10:48;;;;;;;1.3;0.7;;;;;;;;;;;;;
2020/02/01 14:13:14;;;;;;;0.8;0.7;;;;;;;;;;;;;
2020/02/01 14:15:39;;;;;;;1.6;0.9;;;;;;;;;;;;;
2020/02/01 14:18:04;;;;;;;1.8;0.9;;;;;;;;;;;;;
2020/02/01 14:20:29;;;;;;;1.3;0.9;;;;;;;;;;;;;
2020/02/01 14:22:54;;;;;;;0.8;0.8;;;;;;;;;;;;;
2020/02/01 14:25:19;;;;;;;2.5;1;;;;;;;;;;;;;
2020/02/01 14:27:44;;;;;;;1.7;1.1;;;;;;;;;;;;;
2020/02/01 14:30:09;;;;;;;2;1.2;;;;;;;;;;;;;
2020/02/01 14:32:34;;;;;;;1.5;1.1;;;;;;;;;;;;;
2020/02/01 14:35:00;;;;;;;1.1;0.8;;;;;;;;;;;;;
2020/02/01 14:37:25;;;;;;;1.8;1;;;;;;;;;;;;;
2020/02/01 14:39:50;;;;;;;1.5;1;;;;;;;;;;;;;
2020/02/01 14:42:15;;;;;;;1.9;0.9;;;;;;;;;;;;;
2020/02/01 14:44:40;;;;;;;1.4;1.1;;;;;;;;;;;;;
2020/02/01 14:47:05;;;;;;;1.4;1;;;;;;;;;;;;;
2020/02/01 14:49:30;;;;;;;1.9;0.9;;;;;;;;;;;;;
2020/02/01 14:51:55;;;;;;;0.8;0.7;;;;;;;;;;;;;
2020/02/01 14:54:20;;;;;;;1;0.8;;;;;;;;;;;;;
2020/02/01 14:56:45;;;;;;;1.3;1.1;;;;;;;;;;;;;
2020/02/01 14:59:10;;;;;;;1.1;0.8;;;;;;;;;;;;;
2020/02/01 15:01:35;;;;;;;1.2;1;;;;;;;;;;;;;
2020/02/01 15:04:00;;;;;;;1;0.9;;;;;;;;;;;;;
2020/02/01 15:06:26;;;;;;;1.8;1.3;;;;;;;;;;;;;
2020/02/01 15:08:51;;;;;;;1.8;1.3;;;;;;;;;;;;;
2020/02/01 15:11:18;;;;;;;3.1;1.6;;;;;;;;;;;;;
2020/02/01 15:13:41;;;;;;;2.3;1.2;;;;;;;;;;;;;
2020/02/01 15:16:06;;;;;;;2.4;1;;;;;;;;;;;;;
2020/02/01 15:18:33;;;;;;;2;1;;;;;;;;;;;;;
2020/02/01 15:20:58;;;;;;;1.2;1.1;;;;;;;;;;;;;
2020/02/01 15:23:23;;;;;;;1.2;1.1;;;;;;;;;;;;;
2020/02/01 15:25:48;;;;;;;1.2;1.1;;;;;;;;;;;;;
2020/02/01 15:28:13;;;;;;;1.6;1.2;;;;;;;;;;;;;
2020/02/01 15:30:38;;;;;;;1.3;1.1;;;;;;;;;;;;;
2020/02/01 15:33:03;;;;;;;1.8;1.2;;;;;;;;;;;;;
2020/02/01 15:35:28;;;;;;;1.8;1.3;;;;;;;;;;;;;
2020/02/01 15:37:53;;;;;;;2.4;1.4;;;;;;;;;;;;;
2020/02/01 15:40:19;;;;;;;2.2;1.6;;;;;;;;;;;;;
2020/02/01 15:42:44;;;;;;;1.7;1.3;;;;;;;;;;;;;
2020/02/01 15:45:09;;;;;;;2.6;1.4;;;;;;;;;;;;;
2020/02/01 15:47:35;;;;;;;2.3;1.3;;;;;;;;;;;;;
2020/02/01 15:49:59;;;;;;;1.7;1.4;;;;;;;;;;;;;
2020/02/01 15:52:24;;;;;;;1.7;1.5;;;;;;;;;;;;;
2020/02/01 15:54:49;;;;;;;2;1.4;;;;;;;;;;;;;
2020/02/01 15:57:15;;;;;;;1.9;1.5;;;;;;;;;;;;;
2020/02/01 15:59:40;;;;;;;2.2;1.4;;;;;;;;;;;;;
2020/02/01 16:02:05;;;;;;;2.4;1.5;;;;;;;;;;;;;
2020/02/01 16:04:30;;;;;;;2.4;1.5;;;;;;;;;;;;;
2020/02/01 16:06:55;;;;;;;2.4;1.8;;;;;;;;;;;;;
2020/02/01 16:09:20;;;;;;;2.6;1.7;;;;;;;;;;;;;
2020/02/01 16:11:45;;;;;;;2.4;1.8;;;;;;;;;;;;;
2020/02/01 16:14:10;;;;;;;2.2;1.7;;;;;;;;;;;;;
2020/02/01 16:16:36;;;;;;;2.6;1.6;;;;;;;;;;;;;
2020/02/01 16:19:04;;;;;;;3.5;1.9;;;;;;;;;;;;;
2020/02/01 16:21:25;;;;;;;2.5;1.6;;;;;;;;;;;;;
2020/02/01 16:23:50;;;;;;;1.9;1.6;;;;;;;;;;;;;
2020/02/01 16:26:15;;;;;;;2.6;1.8;;;;;;;;;;;;;
2020/02/01 16:28:41;;;;;;;3.1;1.9;;;;;;;;;;;;;
2020/02/01 16:31:06;;;;;;;2.1;1.7;;;;;;;;;;;;;
2020/02/01 16:33:31;;;;;;;1.7;1.4;;;;;;;;;;;;;
2020/02/01 16:35:56;;;;;;;2.2;1.6;;;;;;;;;;;;;
2020/02/01 16:38:21;;;;;;;2.1;1.7;;;;;;;;;;;;;
2020/02/01 16:40:46;;;;;;;2.1;1.8;;;;;;;;;;;;;
2020/02/01 16:43:11;;;;;;;2.2;1.6;;;;;;;;;;;;;
2020/02/01 16:45:36;;;;;;;3.4;1.9;;;;;;;;;;;;;
2020/02/01 16:48:01;;;;;;;3.1;1.7;;;;;;;;;;;;;
2020/02/01 16:50:26;;;;;;;2.3;1.8;;;;;;;;;;;;;
2020/02/01 16:52:51;;;;;;;3.4;2.3;;;;;;;;;;;;;
2020/02/01 16:55:16;;;;;;;2.9;2.2;;;;;;;;;;;;;
2020/02/01 16:57:41;;;;;;;2.4;2.1;;;;;;;;;;;;;
2020/02/01 17:00:07;;;;;;;3.2;2.1;;;;;;;;;;;;;
2020/02/01 17:02:32;;;;;;;2.8;2;;;;;;;;;;;;;
2020/02/01 17:04:57;;;;;;;3.4;2.2;;;;;;;;;;;;;
2020/02/01 17:07:29;;;;;;;3.2;2;;;;;;;;;;;;;
2020/02/01 17:09:47;;;;;;;2.5;2.1;;;;;;;;;;;;;
2020/02/01 17:12:12;;;;;;;2.2;1.8;;;;;;;;;;;;;
2020/02/01 17:14:37;;;;;;;2.5;1.9;;;;;;;;;;;;;
2020/02/01 17:17:02;;;;;;;2.7;2;;;;;;;;;;;;;
2020/02/01 17:19:27;;;;;;;3.2;1.9;;;;;;;;;;;;;
2020/02/01 17:21:52;;;;;;;2.6;1.8;;;;;;;;;;;;;
2020/02/01 17:24:17;;;;;;;4;2;;;;;;;;;;;;;
2020/02/01 17:26:43;;;;;;;2.2;1.7;;;;;;;;;;;;;
2020/02/01 17:29:08;;;;;;;3.1;2.1;;;;;;;;;;;;;
2020/02/01 17:31:33;;;;;;;3;1.9;;;;;;;;;;;;;
2020/02/01 17:33:58;;;;;;;2.5;1.9;;;;;;;;;;;;;
2020/02/01 17:36:23;;;;;;;2.6;1.8;;;;;;;;;;;;;
2020/02/01 17:38:48;;;;;;;2.9;1.8;;;;;;;;;;;;;
2020/02/01 17:41:13;;;;;;;2.1;1.7;;;;;;;;;;;;;
2020/02/01 17:43:38;;;;;;;2;1.6;;;;;;;;;;;;;
2020/02/01 17:46:03;;;;;;;2.4;1.8;;;;;;;;;;;;;
2020/02/01 17:48:28;;;;;;;2.3;1.6;;;;;;;;;;;;;
2020/02/01 17:50:53;;;;;;;2.6;1.6;;;;;;;;;;;;;
2020/02/01 17:53:19;;;;;;;1.9;1.7;;;;;;;;;;;;;
2020/02/01 17:55:44;;;;;;;2.3;1.5;;;;;;;;;;;;;
2020/02/01 17:58:09;;;;;;;2.7;1.4;;;;;;;;;;;;;
2020/02/01 18:00:34;;;;;;;1.6;1.2;;;;;;;;;;;;;
2020/02/01 18:02:59;;;;;;;1.6;1.3;;;;;;;;;;;;;
2020/02/01 18:05:24;;;;;;;1.9;1.3;;;;;;;;;;;;;
2020/02/01 18:07:49;;;;;;;2.5;1.3;;;;;;;;;;;;;
2020/02/01 18:10:14;;;;;;;1.4;1.2;;;;;;;;;;;;;
2020/02/01 18:12:40;;;;;;;2.1;1.3;;;;;;;;;;;;;
2020/02/01 18:15:05;;;;;;;2.2;1.1;;;;;;;;;;;;;
2020/02/01 18:17:30;;;;;;;1.5;1.1;;;;;;;;;;;;;
2020/02/01 18:19:55;;;;;;;1.5;1;;;;;;;;;;;;;
2020/02/01 18:22:20;;;;;;;1.8;1.2;;;;;;;;;;;;;
2020/02/01 18:24:45;;;;;;;2.5;1.5;;;;;;;;;;;;;
2020/02/01 18:27:11;;;;;;;2.4;1.5;;;;;;;;;;;;;
2020/02/01 18:29:36;;;;;;;1.5;1.1;;;;;;;;;;;;;
2020/02/01 18:32:01;;;;;;;1.3;1.1;;;;;;;;;;;;;
2020/02/01 18:34:26;;;;;;;1.3;1.1;;;;;;;;;;;;;
2020/02/01 18:36:51;;;;;;;1.2;1.1;;;;;;;;;;;;;
2020/02/01 18:39:17;;;;;;;1.3;1.2;;;;;;;;;;;;;
2020/02/01 18:41:41;;;;;;;4.5;1.3;;;;;;;;;;;;;
2020/02/01 18:44:07;;;;;;;2;1.2;;;;;;;;;;;;;
2020/02/01 18:46:31;;;;;;;1.5;1.2;;;;;;;;;;;;;
2020/02/01 18:48:57;;;;;;;1.7;1.3;;;;;;;;;;;;;
2020/02/01 18:51:22;;;;;;;2.3;1.3;;;;;;;;;;;;;
2020/02/01 18:53:57;;;;;;;2.6;1.4;;;;;;;;;;;;;
2020/02/01 18:56:21;;;;;;;2.1;1.2;;;;;;;;;;;;;
2020/02/01 19:06:14;;;;;;;1.9;1.1;;;;;;;;;;;;;
2020/02/01 19:11:14;;;;;;;3.1;1.4;;;;;;;;;;;;;
2020/02/01 19:15:53;;;;;;;2.1;1.2;;;;;;;;;;;;;
2020/02/01 19:25:16;;;;;;;2.2;1.1;;;;;;;;;;;;;
2020/02/01 19:27:41;;;;;;;2.6;0.9;;;;;;;;;;;;;
2020/02/01 19:30:06;;;;;;;1.4;0.7;;;;;;;;;;;;;
2020/02/01 19:32:31;;;;;;;8.7;1.3;;;;;;;;;;;;;
2020/02/01 19:34:56;;;;;;;3.2;0.9;;;;;;;;;;;;;
2020/02/01 19:37:21;;;;;;;0.8;0.7;;;;;;;;;;;;;
2020/02/01 19:39:46;;;;;;;1.7;0.7;;;;;;;;;;;;;
2020/02/01 19:42:11;;;;;;;3.4;0.8;;;;;;;;;;;;;
2020/02/01 19:44:37;;;;;;;2.3;0.9;;;;;;;;;;;;;
2020/02/01 19:47:02;;;;;;;1.9;0.8;;;;;;;;;;;;;
2020/02/01 19:49:27;;;;;;;2.5;1.1;;;;;;;;;;;;;
2020/02/01 19:51:52;;;;;;;1.7;1;;;;;;;;;;;;;
2020/02/01 19:54:17;;;;;;;1.2;0.9;;;;;;;;;;;;;
2020/02/01 19:56:42;;;;;;;1.4;0.8;;;;;;;;;;;;;
2020/02/01 19:59:07;;;;;;;3.9;1.1;;;;;;;;;;;;;
2020/02/01 20:01:33;;;;;;;2.8;1.3;;;;;;;;;;;;;
2020/02/01 20:03:58;;;;;;;2.7;1.2;;;;;;;;;;;;;
2020/02/01 20:06:23;;;;;;;1.9;1.1;;;;;;;;;;;;;
2020/02/01 20:08:48;;;;;;;2.3;1.1;;;;;;;;;;;;;
2020/02/01 20:11:15;;;;;;;2.3;1.3;;;;;;;;;;;;;
2020/02/01 20:16:11;;;;;;;2.8;1.5;;;;;;;;;;;;;
2020/02/01 20:18:43;;;;;;;2.6;1.3;;;;;;;;;;;;;
2020/02/01 20:21:12;;;;;;;4.1;2.5;;;;;;;;;;;;;
2020/02/01 20:26:08;;;;;;;2.4;1.4;;;;;;;;;;;;;
2020/02/01 20:33:26;;;;;;;3.1;1.4;;;;;;;;;;;;;
2020/02/01 20:37:56;;;;;;;2.8;1.2;;;;;;;;;;;;;
2020/02/01 20:40:42;;;;;;;3.7;1.4;;;;;;;;;;;;;
2020/02/01 20:43:28;;;;;;;2.7;1.5;;;;;;;;;;;;;
2020/02/01 20:45:17;;;;;;;3.3;1.9;;;;;;;;;;;;;
2020/02/01 20:50:20;;;;;;;4;1.8;;;;;;;;;;;;;
2020/02/01 20:52:40;;;;;;;2.5;1.6;;;;;;;;;;;;;
2020/02/01 20:59:49;;;;;;;2.6;1.8;;;;;;;;;;;;;
2020/02/01 21:02:14;;;;;;;3.1;2;;;;;;;;;;;;;
2020/02/01 21:04:37;;;;;;;4;1.9;;;;;;;;;;;;;
2020/02/01 21:09:26;;;;;;;2.6;1.6;;;;;;;;;;;;;
2020/02/01 21:11:55;;;;;;;3.3;1.7;;;;;;;;;;;;;
2020/02/01 21:14:19;;;;;;;2.7;1.5;;;;;;;;;;;;;
2020/02/01 21:19:23;;;;;;;4.1;1.5;;;;;;;;;;;;;
2020/02/01 21:36:17;;;;;;;3.1;1.3;;;;;;;;;;;;;
2020/02/01 21:38:33;;;;;;;2;1.2;;;;;;;;;;;;;
2020/02/01 21:41:03;;;;;;;3.8;1.5;;;;;;;;;;;;;
2020/02/01 21:43:13;;;;;;;2.9;1.3;;;;;;;;;;;;;
2020/02/01 21:45:58;;;;;;;3.4;1.3;;;;;;;;;;;;;
2020/02/01 21:48:03;;;;;;;2.5;1.2;;;;;;;;;;;;;
2020/02/01 21:57:46;;;;;;;2.8;1.2;;;;;;;;;;;;;
2020/02/01 22:00:26;;;;;;;2.6;1;;;;;;;;;;;;;
2020/02/01 22:04:58;;;;;;;4.6;1.4;;;;;;;;;;;;;
2020/02/01 22:08:02;;;;;;;3.6;1.3;;;;;;;;;;;;;
2020/02/01 22:09:48;;;;;;;3.3;1.2;;;;;;;;;;;;;
2020/02/01 22:12:15;;;;;;;2.4;1.1;;;;;;;;;;;;;
2020/02/01 22:14:40;;;;;;;2.6;1.2;;;;;;;;;;;;;
2020/02/01 22:24:24;;;;;;;3.5;1.4;;;;;;;;;;;;;
2020/02/01 22:26:49;;;;;;;1.9;1.1;;;;;;;;;;;;;
2020/02/01 22:34:32;;;;;;;1.9;1.1;;;;;;;;;;;;;
2020/02/01 22:41:16;;;;;;;1.9;1;;;;;;;;;;;;;
2020/02/01 22:43:39;;;;;;;2.4;1.2;;;;;;;;;;;;;
2020/02/01 22:46:11;;;;;;;1.6;1;;;;;;;;;;;;;
2020/02/01 22:48:31;;;;;;;1.7;1.1;;;;;;;;;;;;;
2020/02/01 22:53:32;;;;;;;1.7;1;;;;;;;;;;;;;
2020/02/01 22:56:39;;;;;;;1.9;1;;;;;;;;;;;;;
2020/02/01 23:00:43;;;;;;;1.5;0.9;;;;;;;;;;;;;
2020/02/01 23:02:59;;;;;;;2.2;0.9;;;;;;;;;;;;;
2020/02/01 23:05:20;;;;;;;1.7;0.9;;;;;;;;;;;;;
2020/02/01 23:07:45;;;;;;;1.8;1;;;;;;;;;;;;;
2020/02/01 23:10:10;;;;;;;1.5;0.7;;;;;;;;;;;;;
2020/02/01 23:12:35;;;;;;;3;1.1;;;;;;;;;;;;;
2020/02/01 23:15:00;;;;;;;2;0.9;;;;;;;;;;;;;
2020/02/01 23:17:26;;;;;;;2.6;1.2;;;;;;;;;;;;;
2020/02/01 23:19:51;;;;;;;2.7;0.9;;;;;;;;;;;;;
2020/02/01 23:22:20;;;;;;;3.1;1;;;;;;;;;;;;;
2020/02/01 23:25:16;;;;;;;2.5;0.9;;;;;;;;;;;;;
2020/02/01 23:27:09;;;;;;;2.3;0.8;;;;;;;;;;;;;
2020/02/01 23:29:34;;;;;;;2.2;1;;;;;;;;;;;;;
2020/02/01 23:32:00;;;;;;;2.2;0.9;;;;;;;;;;;;;
2020/02/01 23:34:25;;;;;;;2.7;1;;;;;;;;;;;;;
2020/02/01 23:36:50;;;;;;;2.5;1;;;;;;;;;;;;;
2020/02/01 23:39:26;;;;;;;2.5;0.9;;;;;;;;;;;;;
2020/02/01 23:41:51;;;;;;;3.5;1.1;;;;;;;;;;;;;
2020/02/01 23:44:16;;;;;;;2.1;1;;;;;;;;;;;;;
2020/02/01 23:46:41;;;;;;;2.9;1.1;;;;;;;;;;;;;
2020/02/01 23:49:06;;;;;;;3.8;1;;;;;;;;;;;;;
2020/02/01 23:51:31;;;;;;;2.2;0.8;;;;;;;;;;;;;
2020/02/01 23:53:56;;;;;;;2.5;0.8;;;;;;;;;;;;;
2020/02/01 23:56:22;;;;;;;2.4;0.9;;;;;;;;;;;;;
2020/02/01 23:58:47;;;;;;;2.9;0.9;;;;;;;;;;;;;
